Flight Track Log - Related Links

Times and Time Zones

All times are in EDT time to prevent confusion due to time zone crossing. See the FLG4208 flight status page for this flight to view local times or setup timezone preferences in your user account.

Time Position Orientation Groundspeed Altitude Reporting Facility
EDT Latitude Longitude Course Direction KTS MPH feet Rate Location/Type
Thu 10:45:24 AM 42.2108 -83.3483 275° West 135 155 1,500  Level FAA TRACON SMA TRACON (SMA)
Thu 10:45:44 AM 42.2022 -83.3569 217° Southwest 140 161 2,500 2,923 Climbing FAA TRACON SMA TRACON (SMA)
Thu 10:46:03 AM 42.1994 -83.3761 259° West 173 199 3,400 2,308 Climbing FAA TRACON SMA TRACON (SMA)
Thu 10:46:23 AM 42.2011 -83.3981 276° West 207 238 4,000 900 Climbing FAA TRACON SMA TRACON (SMA)
Thu 10:46:43 AM 42.2039 -83.4308 277° West 232 267 4,000  Level FAA TRACON SMA TRACON (SMA)
Thu 10:47:03 AM 42.2061 -83.4594 276° West 232 267 4,000  Level FAA TRACON SMA TRACON (SMA)
Thu 10:47:23 AM 42.2078 -83.4858 275° West 230 265 4,000  Level FAA TRACON SMA TRACON (SMA)
Thu 10:47:43 AM 42.2097 -83.5119 276° West 229 264 4,000  Level FAA TRACON SMA TRACON (SMA)
Thu 10:48:00 AM 42.2167 -83.6227 270° West  Level FlightAware Approximate
Thu 10:48:03 AM 42.2122 -83.5450 276° West 229 264 4,000  Level FAA TRACON SMA TRACON (SMA)
Thu 10:48:23 AM 42.2147 -83.5719 277° West 233 268 4,000  Level FAA TRACON SMA TRACON (SMA)
Thu 10:48:43 AM 42.2175 -83.6056 276° West 234 269 4,000  Level FAA TRACON SMA TRACON (SMA)
Thu 10:49:00 AM 42.2220 -83.7143 275° West  Level FlightAware Approximate
Thu 10:49:03 AM 42.2197 -83.6331 276° West 237 273 4,000  Level FAA TRACON SMA TRACON (SMA)
Thu 10:49:24 AM 42.2222 -83.6606 277° West 238 274 4,000 439 Level FAA TRACON SMA TRACON (SMA)
Thu 10:49:44 AM 42.2247 -83.6950 276° West 238 274 4,300 2,400 Climbing FAA TRACON SMA TRACON (SMA)
Thu 10:50:00 AM 42.2281 -83.8059 275° West  Level FlightAware Approximate
Thu 10:50:04 AM 42.2269 -83.7225 276° West 240 276 5,600  Level FAA TRACON SMA TRACON (SMA)
Thu 10:50:24 AM 42.2292 -83.7500 276° West 239 275 6,700 2,154 Climbing FAA TRACON SMA TRACON (SMA)
Thu 10:50:43 AM 42.2317 -83.7797 276° West 239 275 7,000 462 Climbing FAA TRACON SMA TRACON (SMA)
Thu 10:51:03 AM 42.2342 -83.8125 276° West 242 278 7,000  Level FAA TRACON SMA TRACON (SMA)
Thu 10:51:23 AM 42.2364 -83.8411 276° West 247 284 7,000  Level FAA TRACON SMA TRACON (SMA)
Thu 10:51:43 AM 42.2386 -83.8700 276° West 248 285 7,000  Level FAA TRACON SMA TRACON (SMA)
Thu 10:52:03 AM 42.2414 -83.9047 276° West 244 281 7,000  Level FAA TRACON SMA TRACON (SMA)
Thu 10:52:23 AM 42.2436 -83.9325 276° West 243 280 7,000  Level FAA TRACON SMA TRACON (SMA)
Thu 10:52:43 AM 42.2458 -83.9611 276° West 245 282 7,000 1,200 Level FAA TRACON SMA TRACON (SMA)
Thu 10:53:03 AM 42.2486 -83.9969 276° West 248 285 7,800 2,700 Climbing FAA TRACON SMA TRACON (SMA)
Thu 10:53:23 AM 42.2511 -84.0253 277° West 247 284 8,800 3,000 Climbing FAA TRACON SMA TRACON (SMA)
Thu 10:53:43 AM 42.2528 -84.0536 275° West 245 282 9,800 1,800 Climbing FAA TRACON SMA TRACON (SMA)
Thu 10:54:03 AM 42.2519 -84.0914 268° West 274 315 10,000 293 Climbing FAA TRACON SMA TRACON (SMA)
Thu 10:54:24 AM 42.2511 -84.1250 268° West 290 334 10,000  Level FAA TRACON SMA TRACON (SMA)
Thu 10:54:45 AM 42.2519 -84.1675 272° West 294 338 10,000  Level FAA TRACON SMA TRACON (SMA)
Thu 10:55:04 AM 42.2517 -84.2014 269° West 293 337 10,000  Level FAA TRACON SMA TRACON (SMA)
Thu 10:55:24 AM 42.2517 -84.2342 270° West 288 331 10,000 150 Level FAA TRACON SMA TRACON (SMA)
Thu 10:55:44 AM 42.2517 -84.2669 270° West 286 329 10,100  Climbing FAA TRACON SMA TRACON (SMA)
Thu 10:56:04 AM 42.2514 -84.3075 269° West 284 327 10,000  Descending FAA TRACON SMA TRACON (SMA)
Thu 10:56:24 AM 42.2511 -84.3403 269° West 284 327 10,100  Climbing FAA TRACON SMA TRACON (SMA)
Thu 10:56:44 AM 42.2506 -84.3733 269° West 284 327 10,000  Descending FAA TRACON SMA TRACON (SMA)
Thu 10:57:03 AM 42.2500 -84.4144 269° West 285 328 10,100  Climbing FAA TRACON SMA TRACON (SMA)
Thu 10:57:23 AM 42.2494 -84.4478 269° West 286 329 10,000  Descending FAA TRACON SMA TRACON (SMA)
Thu 10:57:43 AM 42.2492 -84.4811 269° West 288 331 10,100 150 Climbing FAA TRACON SMA TRACON (SMA)
Thu 10:58:03 AM 42.2494 -84.5233 271° West 291 335 10,100  Level FAA TRACON SMA TRACON (SMA)
Thu 10:58:23 AM 42.2492 -84.5489 269° West 292 336 10,100 -81 Level FAA TRACON SMA TRACON (SMA)
Thu 10:59:17 AM 42.2481 -84.6403 269° West 291 335 10,000 -51 Descending Chicago Center
Thu 11:00:20 AM 42.2581 -84.7653 276° West 291 335 10,000 -768 Level Chicago Center
Thu 11:01:22 AM 42.2803 -84.8550 289° West 256 295 8,400 -1,694 Descending Chicago Center
Thu 11:02:24 AM 42.3000 -84.9381 288° West 239 275 6,500 -1,161 Descending Chicago Center
Thu 11:03:26 AM 42.3175 -85.0189 286° West 229 264 6,000 -774 Descending Chicago Center
Thu 11:04:28 AM 42.3322 -85.1028 283° West 229 264 4,900 -927 Descending Chicago Center
Thu 11:05:29 AM 42.3481 -85.1856 285° West 229 264 4,100 -439 Descending Chicago Center
Thu 11:06:31 AM 42.3636 -85.2706 284° West 230 265 4,000 -48 Descending Chicago Center
Thu 11:07:33 AM 42.3808 -85.3694 283° West 229 264 4,000 -677 Level Chicago Center
Thu 11:08:35 AM 42.3939 -85.4394 284° West 205 236 2,600 -726 Descending Chicago Center
Thu 11:09:37 AM 42.4078 -85.5039 286° West 186 214 2,500 98 Descending Chicago Center
Thu 11:10:38 AM 42.3906 -85.5653 249° West 192 221 2,800 295 Climbing Chicago Center

Login

Don't have an account? Register now (free) for customized features, flight alerts, and more!